createdAt,value
2023-01-13T00:01:23.039Z,8.70
2023-01-13T00:03:50.549Z,9.10
2023-01-13T00:06:25.993Z,8.70
2023-01-13T00:08:53.934Z,8.90
2023-01-13T00:11:22.150Z,8.50
2023-01-13T00:13:49.347Z,8.00
2023-01-13T00:16:19.251Z,9.10
2023-01-13T00:18:47.627Z,9.00
2023-01-13T00:21:23.911Z,8.50
2023-01-13T00:23:52.866Z,8.00
2023-01-13T00:26:22.544Z,9.20
2023-01-13T00:28:49.907Z,8.60
2023-01-13T00:31:19.664Z,8.10
2023-01-13T00:33:48.495Z,8.70
2023-01-13T00:36:17.161Z,8.10
2023-01-13T00:38:44.940Z,8.90
2023-01-13T00:41:25.860Z,9.20
2023-01-13T00:43:53.190Z,8.40
2023-01-13T00:46:22.313Z,8.10
2023-01-13T00:48:50.069Z,8.40
2023-01-13T00:51:20.100Z,8.00
2023-01-13T00:53:50.688Z,8.80
2023-01-13T00:56:21.867Z,8.60
2023-01-13T00:58:52.443Z,9.50
2023-01-13T01:01:22.503Z,8.00
2023-01-13T01:03:54.185Z,9.20
2023-01-13T01:06:24.215Z,8.60
2023-01-13T01:08:52.278Z,8.60
2023-01-13T01:11:25.521Z,9.50
2023-01-13T01:13:54.872Z,8.70
2023-01-13T01:16:23.907Z,8.00
2023-01-13T01:18:52.882Z,9.00
2023-01-13T01:21:40.019Z,8.90
2023-01-13T01:24:07.450Z,8.00
2023-01-13T01:26:34.661Z,8.00
2023-01-13T01:29:02.532Z,8.30
2023-01-13T01:31:33.038Z,8.10
2023-01-13T01:34:01.454Z,9.00
2023-01-13T01:36:32.394Z,8.10
2023-01-13T01:39:00.184Z,9.40
2023-01-13T01:41:29.870Z,8.60
2023-01-13T01:44:00.514Z,8.10
2023-01-13T01:46:29.727Z,8.30
2023-01-13T01:49:25.845Z,8.70
2023-01-13T01:52:17.900Z,8.00
2023-01-13T01:54:49.793Z,8.10
2023-01-13T01:57:23.392Z,9.70
2023-01-13T01:59:51.174Z,9.50
2023-01-13T02:02:18.671Z,8.30
2023-01-13T02:04:51.319Z,8.20
2023-01-13T02:07:25.460Z,8.20
2023-01-13T02:09:55.734Z,8.50
2023-01-13T02:12:30.067Z,9.20
2023-01-13T02:15:02.108Z,8.20
2023-01-13T02:17:57.136Z,8.20
2023-01-13T02:20:48.082Z,8.20
2023-01-13T02:24:22.062Z,8.20
2023-01-13T02:27:15.115Z,8.20
2023-01-13T02:30:09.989Z,8.10
2023-01-13T02:33:04.792Z,8.10
2023-01-13T02:36:02.947Z,8.10
2023-01-13T02:38:51.340Z,8.10
2023-01-13T02:41:53.095Z,8.10
2023-01-13T02:44:25.793Z,8.00
2023-01-13T02:47:05.671Z,8.10
2023-01-13T02:49:39.536Z,8.10
2023-01-13T02:52:18.547Z,8.10
2023-01-13T02:54:52.305Z,8.10
2023-01-13T02:57:20.869Z,8.10
2023-01-13T02:59:49.056Z,8.10
2023-01-13T03:02:20.204Z,8.20
2023-01-13T03:04:53.828Z,8.10
2023-01-13T03:07:48.431Z,8.10
2023-01-13T03:10:47.736Z,8.10
2023-01-13T03:13:40.621Z,8.20
2023-01-13T03:16:32.291Z,8.20
2023-01-13T03:19:22.578Z,8.20
2023-01-13T03:21:49.639Z,8.20
2023-01-13T03:24:29.731Z,8.30
2023-01-13T03:27:06.318Z,8.30
2023-01-13T03:34:04.922Z,8.30
2023-01-13T03:36:34.283Z,8.20
2023-01-13T03:39:09.360Z,8.20
2023-01-13T03:41:46.121Z,8.20
2023-01-13T03:44:24.447Z,8.20
2023-01-13T03:47:09.471Z,8.20
2023-01-13T03:49:46.427Z,8.20
2023-01-13T03:52:22.187Z,8.20
2023-01-13T03:54:54.759Z,8.20
2023-01-13T03:57:26.113Z,8.20
2023-01-13T03:59:56.146Z,8.30
2023-01-13T04:02:40.194Z,8.20
2023-01-13T04:05:09.945Z,8.20
2023-01-13T04:07:46.107Z,8.20
2023-01-13T04:10:16.852Z,8.20
2023-01-13T04:13:02.796Z,8.10
2023-01-13T04:15:34.475Z,8.10
2023-01-13T04:18:16.538Z,8.10
2023-01-13T04:20:45.572Z,8.10
2023-01-13T04:23:13.741Z,8.10
2023-01-13T04:25:42.123Z,8.10
2023-01-13T04:28:10.371Z,8.10
2023-01-13T04:30:38.471Z,8.10
2023-01-13T04:33:06.085Z,8.10
2023-01-13T04:35:34.740Z,8.10
2023-01-13T04:38:03.857Z,8.10
2023-01-13T04:40:30.921Z,8.20
2023-01-13T04:42:57.942Z,8.20
2023-01-13T04:45:25.079Z,8.20
2023-01-13T04:47:52.089Z,8.20
2023-01-13T04:50:22.879Z,8.20
2023-01-13T04:52:50.992Z,8.20
2023-01-13T04:55:18.978Z,8.20
2023-01-13T04:57:46.634Z,8.20
2023-01-13T05:00:19.243Z,8.20
2023-01-13T05:02:46.305Z,8.20
2023-01-13T05:05:13.382Z,8.20
2023-01-13T05:07:40.340Z,8.20
2023-01-13T05:10:07.671Z,8.20
2023-01-13T05:12:53.079Z,8.20
2023-01-13T05:15:38.758Z,8.20
2023-01-13T05:18:06.068Z,8.20
2023-01-13T05:20:33.058Z,8.20
2023-01-13T05:23:18.580Z,8.20
2023-01-13T05:25:48.177Z,8.20
2023-01-13T05:28:16.326Z,8.20
2023-01-13T05:30:46.281Z,8.20
2023-01-13T05:33:16.042Z,8.20
2023-01-13T05:35:43.904Z,8.20
2023-01-13T05:38:11.825Z,8.20
2023-01-13T05:40:59.641Z,8.20
2023-01-13T05:43:27.895Z,8.20
2023-01-13T05:46:04.095Z,8.30
2023-01-13T05:48:37.546Z,8.30
2023-01-13T05:51:06.934Z,8.20
2023-01-13T05:53:34.358Z,8.20
2023-01-13T05:56:04.744Z,8.30
2023-01-13T05:58:31.996Z,8.30
2023-01-13T06:01:09.702Z,8.30
2023-01-13T06:03:37.440Z,8.30
2023-01-13T06:06:04.755Z,8.30
2023-01-13T06:08:32.837Z,8.30
2023-01-13T06:11:01.052Z,8.30
2023-01-13T06:13:28.039Z,8.30
2023-01-13T06:15:59.198Z,8.40
2023-01-13T06:18:27.472Z,8.40
2023-01-13T06:20:54.643Z,8.40
2023-01-13T06:23:21.640Z,8.40
2023-01-13T06:26:09.744Z,8.40
2023-01-13T06:28:36.783Z,8.50
2023-01-13T06:31:06.645Z,8.40
2023-01-13T06:33:38.110Z,8.40
2023-01-13T06:36:12.182Z,8.50
2023-01-13T06:38:42.878Z,8.40
2023-01-13T06:41:10.355Z,8.50
2023-01-13T06:43:39.122Z,8.50
2023-01-13T06:46:06.315Z,8.50
2023-01-13T06:48:35.529Z,8.50
2023-01-13T06:51:04.216Z,8.50
2023-01-13T06:53:31.609Z,8.50
2023-01-13T06:55:58.707Z,8.40
2023-01-13T06:58:25.728Z,8.50
2023-01-13T07:00:52.876Z,8.40
2023-01-13T07:03:20.156Z,8.30
2023-01-13T07:05:55.374Z,8.40
2023-01-13T07:08:24.267Z,8.30
2023-01-13T07:10:51.677Z,8.40
2023-01-13T07:13:37.198Z,8.40
2023-01-13T07:16:06.322Z,8.40
2023-01-13T07:18:34.958Z,8.40
2023-01-13T07:21:07.523Z,8.40
2023-01-13T07:23:37.708Z,8.40
2023-01-13T07:26:05.044Z,8.40
2023-01-13T07:28:32.906Z,8.40
2023-01-13T07:31:00.577Z,8.40
2023-01-13T07:33:27.839Z,8.40
2023-01-13T07:36:05.403Z,8.40
2023-01-13T07:38:33.739Z,8.40
2023-01-13T07:41:19.750Z,8.40
2023-01-13T07:43:47.106Z,8.40
2023-01-13T07:46:14.186Z,8.40
2023-01-13T07:48:41.201Z,8.40
2023-01-13T07:51:10.446Z,8.40
2023-01-13T07:53:38.529Z,8.40
2023-01-13T07:56:07.141Z,8.40
2023-01-13T07:58:35.613Z,8.40
2023-01-13T08:01:13.771Z,8.40
2023-01-13T08:03:41.232Z,8.40
2023-01-13T08:06:09.633Z,8.30
2023-01-13T08:08:37.283Z,8.30
2023-01-13T08:11:06.039Z,8.20
2023-01-13T08:13:33.331Z,8.20
2023-01-13T08:16:03.263Z,8.20
2023-01-13T08:18:32.462Z,8.20
2023-01-13T08:21:04.050Z,8.30
2023-01-13T08:23:31.322Z,8.30
2023-01-13T08:26:07.172Z,8.30
2023-01-13T08:28:34.188Z,8.30
2023-01-13T08:31:03.213Z,8.30
2023-01-13T08:33:30.643Z,8.40
2023-01-13T08:35:58.083Z,8.40
2023-01-13T08:38:25.735Z,8.50
2023-01-13T08:40:52.861Z,8.60
2023-01-13T08:43:19.879Z,8.60
2023-01-13T08:45:55.456Z,8.60
2023-01-13T08:48:22.501Z,8.60
2023-01-13T08:50:49.570Z,8.60
2023-01-13T08:53:16.923Z,8.70
2023-01-13T08:55:44.099Z,8.70
2023-01-13T08:58:15.840Z,8.60
2023-01-13T09:00:44.122Z,8.60
2023-01-13T09:03:11.132Z,8.60
2023-01-13T09:05:38.151Z,8.60
2023-01-13T09:08:05.375Z,8.60
2023-01-13T09:10:32.606Z,8.60
2023-01-13T09:13:14.782Z,8.50
2023-01-13T09:15:45.018Z,8.50
2023-01-13T09:18:12.863Z,8.40
2023-01-13T09:20:39.919Z,8.40
2023-01-13T09:23:10.301Z,8.20
2023-01-13T09:25:37.930Z,8.10
2023-01-13T09:28:05.265Z,7.90
2023-01-13T09:30:32.391Z,7.80
2023-01-13T09:33:18.301Z,7.80
2023-01-13T09:35:45.661Z,7.50
2023-01-13T09:38:12.822Z,7.10
2023-01-13T09:40:44.110Z,7.30
2023-01-13T09:43:44.783Z,7.60
2023-01-13T09:46:39.194Z,6.70
2023-01-13T09:49:08.643Z,6.60
2023-01-13T09:51:49.406Z,6.50
2023-01-13T09:54:32.599Z,6.50
2023-01-13T09:57:00.101Z,8.20
2023-01-13T09:59:36.519Z,6.60
2023-01-13T10:02:27.421Z,6.50
2023-01-13T10:05:12.102Z,6.40
2023-01-13T10:07:51.773Z,6.50
2023-01-13T10:10:25.423Z,6.50
2023-01-13T10:13:12.743Z,6.60
2023-01-13T10:15:49.357Z,6.70
2023-01-13T10:18:30.176Z,6.50
2023-01-13T10:21:18.791Z,6.60
2023-01-13T10:23:54.333Z,6.60
2023-01-13T10:26:48.248Z,6.60
2023-01-13T10:29:21.732Z,6.70
2023-01-13T10:31:48.817Z,6.80
2023-01-13T10:34:17.276Z,7.30
2023-01-13T10:37:09.033Z,6.80
2023-01-13T10:39:41.769Z,6.80
2023-01-13T10:42:15.223Z,6.90
2023-01-13T10:44:54.111Z,7.00
2023-01-13T10:47:24.548Z,6.90
2023-01-13T10:50:06.364Z,7.00
2023-01-13T10:52:38.290Z,7.00
2023-01-13T10:55:23.843Z,7.00
2023-01-13T10:57:50.908Z,7.00
2023-01-13T11:00:33.632Z,7.30
2023-01-13T11:03:22.763Z,7.10
2023-01-13T11:05:58.594Z,7.20
2023-01-13T11:08:29.320Z,7.20
2023-01-13T11:11:00.201Z,7.20
2023-01-13T11:14:02.750Z,7.30
2023-01-13T11:16:30.034Z,7.30
2023-01-13T11:19:12.297Z,7.30
2023-01-13T11:21:43.901Z,7.40
2023-01-13T11:24:30.390Z,7.40
2023-01-13T11:27:02.193Z,7.40
2023-01-13T11:29:47.221Z,7.40
2023-01-13T11:32:20.409Z,7.30
2023-01-13T11:34:54.752Z,7.30
2023-01-13T11:37:23.749Z,7.30
2023-01-13T11:39:58.044Z,7.30
2023-01-13T11:42:40.657Z,7.30
2023-01-13T11:45:20.132Z,7.30
2023-01-13T11:47:51.206Z,7.30
2023-01-13T11:50:43.393Z,7.30
2023-01-13T11:53:39.743Z,7.30
2023-01-13T11:56:06.756Z,7.30
2023-01-13T11:59:02.501Z,7.30
2023-01-13T12:01:48.444Z,7.30
2023-01-13T12:04:28.075Z,7.30
2023-01-13T12:07:15.292Z,7.40
2023-01-13T12:10:05.200Z,7.30
2023-01-13T12:13:00.272Z,7.20
2023-01-13T12:15:36.288Z,7.10
2023-01-13T12:18:28.179Z,7.10
2023-01-13T12:21:19.052Z,7.00
2023-01-13T12:24:11.008Z,7.00
2023-01-13T12:26:49.511Z,6.90
2023-01-13T12:29:19.592Z,6.90
2023-01-13T12:31:51.142Z,6.90
2023-01-13T12:34:36.585Z,7.00
2023-01-13T12:37:22.372Z,6.90
2023-01-13T12:39:55.242Z,6.90
2023-01-13T12:43:01.172Z,6.90
2023-01-13T12:45:32.775Z,6.90
2023-01-13T12:48:00.861Z,7.30
2023-01-13T12:50:28.159Z,7.10
2023-01-13T12:52:57.709Z,7.60
2023-01-13T12:55:33.774Z,7.70
2023-01-13T13:02:37.950Z,7.30
2023-01-13T13:05:23.307Z,7.40
2023-01-13T13:08:03.679Z,7.30
2023-01-13T13:10:34.689Z,7.30
2023-01-13T13:13:18.238Z,7.20
2023-01-13T13:16:12.010Z,7.10
2023-01-13T13:18:39.050Z,7.30
2023-01-13T13:21:10.159Z,7.40
2023-01-13T13:23:39.439Z,7.00
2023-01-13T13:26:25.138Z,7.20
2023-01-13T13:33:19.649Z,6.70
2023-01-13T13:36:14.750Z,6.60
2023-01-13T13:39:29.243Z,6.50
2023-01-13T13:42:28.648Z,6.40
2023-01-13T13:45:15.319Z,7.00
2023-01-13T13:47:42.404Z,6.40
2023-01-13T13:50:15.457Z,6.30
2023-01-13T13:52:52.004Z,7.00
2023-01-13T13:55:23.024Z,6.80
2023-01-13T13:57:52.828Z,6.50
2023-01-13T14:00:49.208Z,6.50
2023-01-13T14:03:26.567Z,6.60
2023-01-13T14:06:05.950Z,6.70
2023-01-13T14:08:34.544Z,6.80
2023-01-13T14:11:01.666Z,6.80
2023-01-13T14:13:32.321Z,7.20
2023-01-13T14:16:00.785Z,6.70
2023-01-13T14:18:30.863Z,6.70
2023-01-13T14:21:03.971Z,6.60
2023-01-13T14:23:33.436Z,6.60
2023-01-13T14:26:08.789Z,7.40
2023-01-13T14:28:40.747Z,7.20
2023-01-13T14:31:09.722Z,6.80
2023-01-13T14:33:53.506Z,7.10
2023-01-13T14:36:23.591Z,6.20
2023-01-13T14:39:11.543Z,6.10
2023-01-13T14:41:42.749Z,6.50
2023-01-13T14:44:22.714Z,6.10
2023-01-13T14:46:50.165Z,6.00
2023-01-13T14:49:26.538Z,6.40
2023-01-13T14:51:53.906Z,6.00
2023-01-13T14:55:06.903Z,6.30
2023-01-13T14:57:35.642Z,6.00
2023-01-13T15:00:05.506Z,6.00
2023-01-13T15:02:39.667Z,6.20
2023-01-13T15:05:24.621Z,6.00
2023-01-13T15:07:55.493Z,6.10
2023-01-13T15:10:46.680Z,6.60
2023-01-13T15:13:36.002Z,5.80
2023-01-13T15:16:14.336Z,5.80
2023-01-13T15:18:41.553Z,6.30
2023-01-13T15:21:09.581Z,6.80
2023-01-13T15:23:37.471Z,6.30
2023-01-13T15:26:06.707Z,6.00
2023-01-13T15:28:33.753Z,5.70
2023-01-13T15:31:01.835Z,5.70
2023-01-13T15:33:29.132Z,6.70
2023-01-13T15:35:56.272Z,6.30
2023-01-13T15:38:24.316Z,5.70
2023-01-13T15:40:52.857Z,7.10
2023-01-13T15:44:29.983Z,5.60
2023-01-13T15:46:58.165Z,5.60
2023-01-13T15:49:36.500Z,6.70
2023-01-13T15:52:22.396Z,6.80
2023-01-13T15:54:50.479Z,5.40
2023-01-13T15:57:30.317Z,6.60
2023-01-13T16:00:00.734Z,5.30
2023-01-13T16:02:29.412Z,7.00
2023-01-13T16:04:56.785Z,5.60
2023-01-13T16:07:25.341Z,5.70
2023-01-13T16:09:52.417Z,6.90
2023-01-13T16:13:11.473Z,6.00
2023-01-13T16:15:50.084Z,5.00
2023-01-13T16:18:20.126Z,5.70
2023-01-13T16:21:55.507Z,6.80
2023-01-13T16:24:22.568Z,4.90
2023-01-13T16:26:49.607Z,4.90
2023-01-13T16:29:16.584Z,5.20
2023-01-13T16:31:43.627Z,6.60
2023-01-13T16:34:12.770Z,6.20
2023-01-13T16:36:39.917Z,6.80
2023-01-13T16:39:21.064Z,6.40
2023-01-13T16:41:53.248Z,5.00
2023-01-13T16:44:20.356Z,6.90
2023-01-13T16:46:47.765Z,6.60
2023-01-13T16:49:16.736Z,6.30
2023-01-13T16:51:43.912Z,6.80
2023-01-13T16:54:11.983Z,6.20
2023-01-13T16:56:38.951Z,6.10
2023-01-13T16:59:08.851Z,6.50
2023-01-13T17:01:38.957Z,6.40
2023-01-13T17:04:06.853Z,6.80
2023-01-13T17:06:44.671Z,6.20
2023-01-13T17:13:37.130Z,4.60
2023-01-13T17:16:04.357Z,6.20
2023-01-13T17:18:31.840Z,4.40
2023-01-13T17:21:38.111Z,4.40
2023-01-13T17:24:55.815Z,4.40
2023-01-13T17:28:20.619Z,4.50
2023-01-13T17:30:52.289Z,4.50
2023-01-13T17:33:22.517Z,5.60
2023-01-13T17:36:16.034Z,4.40
2023-01-13T17:38:43.183Z,4.40
2023-01-13T17:41:10.254Z,5.00
2023-01-13T17:44:10.264Z,6.40
2023-01-13T17:46:37.229Z,4.40
2023-01-13T17:49:04.218Z,6.30
2023-01-13T17:51:31.203Z,4.40
2023-01-13T17:53:58.261Z,5.60
2023-01-13T17:56:26.264Z,6.50
2023-01-13T17:58:53.418Z,5.40
2023-01-13T18:01:38.504Z,6.50
2023-01-13T18:04:07.041Z,6.70
2023-01-13T18:06:34.285Z,5.20
2023-01-13T18:13:26.692Z,4.70
2023-01-13T18:16:12.744Z,6.60
2023-01-13T18:18:42.253Z,6.10
2023-01-13T18:22:11.171Z,5.50
2023-01-13T18:24:56.747Z,4.60
2023-01-13T18:27:36.712Z,4.60
2023-01-13T18:30:04.989Z,6.50
2023-01-13T18:32:35.787Z,4.60
2023-01-13T18:36:07.289Z,4.60
2023-01-13T18:39:28.844Z,4.60
2023-01-13T18:46:40.819Z,4.60
2023-01-13T18:49:07.828Z,4.60
2023-01-13T18:52:15.995Z,6.00
2023-01-13T18:54:43.003Z,4.60
2023-01-13T18:57:10.669Z,5.70
2023-01-13T18:59:37.676Z,6.40
2023-01-13T19:02:09.456Z,6.00
2023-01-13T19:04:36.590Z,6.70
2023-01-13T19:07:04.369Z,6.10
2023-01-13T19:09:31.641Z,5.60
2023-01-13T19:12:31.039Z,6.80
2023-01-13T19:14:58.941Z,4.80
2023-01-13T19:17:31.016Z,4.80
2023-01-13T19:19:59.185Z,6.70
2023-01-13T19:22:30.415Z,6.70
2023-01-13T19:24:58.484Z,4.90
2023-01-13T19:27:27.484Z,6.50
2023-01-13T19:29:57.743Z,6.80
2023-01-13T19:32:25.138Z,6.50
2023-01-13T19:34:53.263Z,7.00
2023-01-13T19:37:20.346Z,5.80
2023-01-13T19:39:47.540Z,6.40
2023-01-13T19:42:33.027Z,6.50
2023-01-13T19:45:18.472Z,6.40
2023-01-13T19:47:46.049Z,5.30
2023-01-13T19:50:13.987Z,6.20
2023-01-13T19:52:42.154Z,6.00
2023-01-13T19:55:11.806Z,7.00
2023-01-13T19:57:39.563Z,6.00
2023-01-13T20:00:08.437Z,5.80
2023-01-13T20:02:48.100Z,5.10
2023-01-13T20:05:22.018Z,5.10
2023-01-13T20:07:50.702Z,5.10
2023-01-13T20:10:19.943Z,7.20
2023-01-13T20:12:46.980Z,5.10
2023-01-13T20:15:14.079Z,7.20
2023-01-13T20:17:41.747Z,5.00
2023-01-13T20:20:10.740Z,6.40
2023-01-13T20:22:39.451Z,5.00
2023-01-13T20:25:06.958Z,6.30
2023-01-13T20:27:34.184Z,4.90
2023-01-13T20:30:01.185Z,6.80
2023-01-13T20:32:28.132Z,6.90
2023-01-13T20:34:55.105Z,6.20
2023-01-13T20:37:22.864Z,6.20
2023-01-13T20:39:49.930Z,6.70
2023-01-13T20:42:44.747Z,4.90
2023-01-13T20:45:17.185Z,5.80
2023-01-13T20:47:45.226Z,6.40
2023-01-13T20:50:13.166Z,6.30
2023-01-13T20:52:40.127Z,6.80
2023-01-13T20:55:12.881Z,6.50
2023-01-13T20:57:41.041Z,5.50
2023-01-13T21:00:08.805Z,6.70
2023-01-13T21:02:35.767Z,4.70
2023-01-13T21:05:02.736Z,5.90
2023-01-13T21:07:29.721Z,5.50
2023-01-13T21:09:57.899Z,5.80
2023-01-13T21:12:43.267Z,6.30
2023-01-13T21:15:18.121Z,6.30
2023-01-13T21:18:05.035Z,6.50
2023-01-13T21:20:34.158Z,6.10
2023-01-13T21:23:12.930Z,5.80
2023-01-13T21:25:40.612Z,4.40
2023-01-13T21:28:11.346Z,4.30
2023-01-13T21:30:39.349Z,4.30
2023-01-13T21:33:06.921Z,4.30
2023-01-13T21:35:37.745Z,4.30
2023-01-13T21:38:47.400Z,4.30
2023-01-13T21:41:15.163Z,4.30
2023-01-13T21:44:00.799Z,4.50
2023-01-13T21:46:46.251Z,6.30
2023-01-13T21:49:13.363Z,6.00
2023-01-13T21:51:40.334Z,5.80
2023-01-13T21:54:07.277Z,6.30
2023-01-13T21:56:34.254Z,6.20
2023-01-13T21:59:01.314Z,6.00
2023-01-13T22:05:52.797Z,4.60
2023-01-13T22:08:19.743Z,6.40
2023-01-13T22:10:57.914Z,6.30
2023-01-13T22:13:44.195Z,6.00
2023-01-13T22:17:09.375Z,6.30
2023-01-13T22:19:39.265Z,4.70
2023-01-13T22:22:07.455Z,6.20
2023-01-13T22:24:34.442Z,6.70
2023-01-13T22:27:01.418Z,6.70
2023-01-13T22:29:28.404Z,4.70
2023-01-13T22:31:55.390Z,6.10
2023-01-13T22:34:22.653Z,6.50
2023-01-13T22:36:49.946Z,4.70
2023-01-13T22:39:18.776Z,4.70
2023-01-13T22:42:16.286Z,4.70
2023-01-13T22:44:43.859Z,4.60
2023-01-13T22:47:11.118Z,4.60
2023-01-13T22:49:38.278Z,4.50
2023-01-13T22:52:05.955Z,6.30
2023-01-13T22:54:33.031Z,5.80
2023-01-13T22:57:00.118Z,5.60
2023-01-13T22:59:27.133Z,6.20
2023-01-13T23:01:54.083Z,5.90
2023-01-13T23:04:21.234Z,5.70
2023-01-13T23:06:48.291Z,6.20
2023-01-13T23:09:15.433Z,5.60
2023-01-13T23:11:42.457Z,5.90
2023-01-13T23:14:12.005Z,6.00
2023-01-13T23:16:40.555Z,5.60
2023-01-13T23:19:08.373Z,5.60
2023-01-13T23:21:37.669Z,5.50
2023-01-13T23:24:06.493Z,6.20
2023-01-13T23:26:34.277Z,4.20
2023-01-13T23:29:02.668Z,5.70
2023-01-13T23:31:30.139Z,6.00
2023-01-13T23:33:57.285Z,6.10
2023-01-13T23:36:26.071Z,5.70
2023-01-13T23:38:53.981Z,5.00
2023-01-13T23:41:23.556Z,6.00
2023-01-13T23:43:51.301Z,5.40
2023-01-13T23:46:18.415Z,4.20
2023-01-13T23:48:45.499Z,6.00
2023-01-13T23:51:14.057Z,5.90
2023-01-13T23:53:44.042Z,5.10
2023-01-13T23:56:15.119Z,6.00
2023-01-13T23:58:43.596Z,6.00
